createdAt,value
2023-02-17T00:00:18.482Z,74.91
2023-02-17T00:03:40.091Z,74.87
2023-02-17T00:06:41.706Z,75.03
2023-02-17T00:09:43.356Z,75.38
2023-02-17T00:12:45.584Z,75.10
2023-02-17T00:15:47.206Z,75.33
2023-02-17T00:18:52.410Z,75.05
2023-02-17T00:21:56.889Z,75.13
2023-02-17T00:24:58.648Z,75.24
2023-02-17T00:28:00.382Z,74.93
2023-02-17T00:31:09.732Z,74.85
2023-02-17T00:34:12.077Z,74.98
2023-02-17T00:37:14.126Z,75.03
2023-02-17T00:40:15.826Z,74.88
2023-02-17T00:43:17.326Z,74.47
2023-02-17T00:46:19.256Z,74.35
2023-02-17T00:49:24.579Z,74.53
2023-02-17T00:52:26.229Z,74.29
2023-02-17T00:55:27.917Z,74.64
2023-02-17T00:58:29.602Z,74.72
2023-02-17T01:01:32.459Z,74.43
2023-02-17T01:04:34.384Z,74.32
2023-02-17T01:07:36.122Z,74.02
2023-02-17T01:10:38.861Z,74.66
2023-02-17T01:13:40.577Z,74.73
2023-02-17T01:16:44.398Z,74.57
2023-02-17T01:19:46.119Z,74.60
2023-02-17T01:22:47.596Z,74.31
2023-02-17T01:25:49.599Z,74.88
2023-02-17T01:28:52.457Z,75.12
2023-02-17T01:31:54.088Z,74.83
2023-02-17T01:34:55.704Z,74.56
2023-02-17T01:37:57.350Z,74.87
2023-02-17T01:40:59.250Z,74.65
2023-02-17T01:44:11.876Z,74.88
2023-02-17T01:47:16.594Z,74.86
2023-02-17T01:50:21.590Z,75.12
2023-02-17T01:53:28.406Z,74.49
2023-02-17T01:56:31.640Z,74.90
2023-02-17T01:59:33.342Z,74.84
2023-02-17T02:02:35.537Z,74.72
2023-02-17T02:05:38.650Z,74.98
2023-02-17T02:08:56.801Z,74.83
2023-02-17T02:11:58.613Z,74.70
2023-02-17T02:15:05.916Z,74.73
2023-02-17T02:18:39.576Z,74.76
2023-02-17T02:22:22.812Z,74.67
2023-02-17T02:25:39.874Z,74.50
2023-02-17T02:28:44.320Z,74.73
2023-02-17T02:32:34.565Z,74.40
2023-02-17T02:36:06.060Z,74.41
2023-02-17T02:39:11.688Z,74.32
2023-02-17T02:42:16.086Z,74.63
2023-02-17T02:45:19.055Z,74.45
2023-02-17T02:48:20.700Z,74.21
2023-02-17T02:51:22.299Z,74.28
2023-02-17T02:54:42.505Z,74.31
2023-02-17T02:57:52.786Z,74.36
2023-02-17T03:01:21.019Z,74.66
2023-02-17T03:04:31.978Z,74.56
2023-02-17T03:07:40.768Z,74.65
2023-02-17T03:10:51.376Z,74.52
2023-02-17T03:13:53.180Z,74.51
2023-02-17T03:16:54.700Z,74.64
2023-02-17T03:19:56.325Z,74.73
2023-02-17T03:22:58.162Z,74.80
2023-02-17T03:25:59.808Z,74.85
2023-02-17T03:29:01.399Z,75.19
2023-02-17T03:32:03.132Z,75.04
2023-02-17T03:35:05.159Z,75.44
2023-02-17T03:38:06.864Z,75.57
2023-02-17T03:41:08.535Z,75.67
2023-02-17T03:44:10.156Z,76.20
2023-02-17T03:47:11.856Z,76.42
2023-02-17T03:50:13.668Z,76.26
2023-02-17T03:53:15.228Z,76.19
2023-02-17T03:56:18.260Z,76.11
2023-02-17T03:59:20.046Z,75.77
2023-02-17T04:02:21.646Z,75.57
2023-02-17T04:05:24.475Z,75.35
2023-02-17T04:08:26.265Z,75.70
2023-02-17T04:11:27.955Z,75.55
2023-02-17T04:14:29.581Z,75.77
2023-02-17T04:17:31.319Z,76.42
2023-02-17T04:20:32.833Z,76.48
2023-02-17T04:23:36.343Z,76.78
2023-02-17T04:26:38.484Z,77.02
2023-02-17T04:29:40.230Z,76.97
2023-02-17T04:32:41.873Z,76.98
2023-02-17T04:35:43.552Z,77.00
2023-02-17T04:38:45.425Z,76.87
2023-02-17T04:41:47.232Z,76.92
2023-02-17T04:44:48.965Z,76.72
2023-02-17T04:47:51.001Z,76.73
2023-02-17T04:50:52.738Z,76.76
2023-02-17T04:53:54.463Z,76.91
2023-02-17T04:56:56.001Z,77.00
2023-02-17T04:59:57.569Z,76.80
2023-02-17T05:02:59.261Z,76.52
2023-02-17T05:06:01.563Z,76.23
2023-02-17T05:09:03.356Z,75.39
2023-02-17T05:12:04.874Z,75.36
2023-02-17T05:15:07.424Z,75.41
2023-02-17T05:18:09.231Z,75.48
2023-02-17T05:21:10.859Z,75.56
2023-02-17T05:24:12.616Z,75.70
2023-02-17T05:27:14.154Z,75.52
2023-02-17T05:30:15.920Z,75.77
2023-02-17T05:33:17.425Z,75.94
2023-02-17T05:36:19.105Z,75.77
2023-02-17T05:39:20.680Z,76.20
2023-02-17T05:42:22.486Z,75.96
2023-02-17T05:45:24.212Z,76.19
2023-02-17T05:48:25.876Z,76.37
2023-02-17T05:51:27.753Z,76.37
2023-02-17T05:54:29.266Z,76.32
2023-02-17T05:57:31.591Z,76.28
2023-02-17T06:00:33.263Z,76.36
2023-02-17T06:03:34.825Z,76.45
2023-02-17T06:06:36.428Z,76.68
2023-02-17T06:09:38.010Z,76.87
2023-02-17T06:12:39.808Z,77.20
2023-02-17T06:15:41.255Z,77.71
2023-02-17T06:18:42.868Z,78.08
2023-02-17T06:21:44.476Z,77.52
2023-02-17T06:24:46.112Z,77.57
2023-02-17T06:27:47.669Z,77.28
2023-02-17T06:30:49.546Z,77.16
2023-02-17T06:33:51.032Z,77.63
2023-02-17T06:36:52.696Z,78.19
2023-02-17T06:39:54.353Z,77.85
2023-02-17T06:42:55.908Z,77.83
2023-02-17T06:45:57.503Z,77.63
2023-02-17T06:48:59.174Z,77.56
2023-02-17T06:52:00.772Z,77.43
2023-02-17T06:55:02.413Z,77.28
2023-02-17T06:58:04.165Z,77.39
2023-02-17T07:01:05.917Z,77.28
2023-02-17T07:04:07.455Z,77.12
2023-02-17T07:07:10.676Z,76.89
2023-02-17T07:10:12.380Z,76.99
2023-02-17T07:13:14.089Z,76.50
2023-02-17T07:16:16.209Z,76.58
2023-02-17T07:19:18.029Z,76.48
2023-02-17T07:22:19.935Z,76.32
2023-02-17T07:25:21.749Z,76.11
2023-02-17T07:28:23.275Z,76.11
2023-02-17T07:31:25.035Z,76.05
2023-02-17T07:34:26.633Z,76.00
2023-02-17T07:37:28.373Z,75.88
2023-02-17T07:40:29.979Z,75.95
2023-02-17T07:43:31.902Z,75.80
2023-02-17T07:46:33.370Z,75.77
2023-02-17T07:49:35.227Z,76.01
2023-02-17T07:52:37.291Z,76.08
2023-02-17T07:55:38.959Z,75.90
2023-02-17T07:58:41.976Z,75.99
2023-02-17T08:01:43.823Z,75.85
2023-02-17T08:04:45.561Z,75.92
2023-02-17T08:07:47.109Z,75.90
2023-02-17T08:10:48.764Z,75.78
2023-02-17T08:13:50.278Z,75.77
2023-02-17T08:16:52.763Z,75.64
2023-02-17T08:19:55.271Z,75.75
2023-02-17T08:22:57.028Z,75.54
2023-02-17T08:25:58.919Z,75.39
2023-02-17T08:29:00.352Z,75.26
2023-02-17T08:32:02.299Z,75.18
2023-02-17T08:35:04.223Z,75.06
2023-02-17T08:38:05.822Z,74.97
2023-02-17T08:41:13.681Z,75.14
2023-02-17T08:44:17.447Z,75.10
2023-02-17T08:47:37.531Z,74.99
2023-02-17T08:50:39.147Z,75.00
2023-02-17T08:53:40.776Z,74.92
2023-02-17T08:56:42.466Z,74.88
2023-02-17T08:59:44.176Z,74.91
2023-02-17T09:02:45.934Z,74.87
2023-02-17T09:05:49.942Z,74.87
2023-02-17T09:08:52.292Z,74.78
2023-02-17T09:11:56.204Z,74.18
2023-02-17T09:14:57.877Z,73.70
2023-02-17T09:17:59.491Z,73.43
2023-02-17T09:21:09.447Z,73.34
2023-02-17T09:24:11.178Z,73.29
2023-02-17T09:27:13.024Z,73.16
2023-02-17T09:30:14.900Z,72.99
2023-02-17T09:33:16.564Z,73.02
2023-02-17T09:36:21.191Z,72.71
2023-02-17T09:39:22.850Z,72.87
2023-02-17T09:42:26.218Z,73.03
2023-02-17T09:45:32.859Z,72.94
2023-02-17T09:48:35.309Z,73.17
2023-02-17T09:51:45.824Z,73.41
2023-02-17T09:54:58.664Z,73.60
2023-02-17T09:58:03.935Z,73.49
2023-02-17T10:01:14.189Z,73.72
2023-02-17T10:04:20.935Z,73.68
2023-02-17T10:07:33.239Z,73.85
2023-02-17T10:10:40.293Z,74.09
2023-02-17T10:13:43.143Z,74.12
2023-02-17T10:16:55.063Z,74.26
2023-02-17T10:20:18.382Z,74.40
2023-02-17T10:23:23.440Z,74.44
2023-02-17T10:26:40.272Z,74.33
2023-02-17T10:29:57.339Z,74.40
2023-02-17T10:33:14.246Z,74.45
2023-02-17T10:36:26.466Z,74.28
2023-02-17T10:40:00.670Z,74.00
2023-02-17T10:43:07.314Z,73.15
2023-02-17T10:46:09.923Z,71.14
2023-02-17T10:49:19.164Z,71.80
2023-02-17T10:52:24.577Z,71.08
2023-02-17T10:55:31.832Z,71.16
2023-02-17T10:58:38.953Z,70.24
2023-02-17T11:01:41.399Z,70.44
2023-02-17T11:04:45.380Z,70.51
2023-02-17T11:07:47.395Z,69.92
2023-02-17T11:11:02.903Z,69.66
2023-02-17T11:14:12.845Z,69.82
2023-02-17T11:17:38.172Z,70.16
2023-02-17T11:20:39.717Z,69.87
2023-02-17T11:24:04.243Z,69.94
2023-02-17T11:27:10.474Z,69.98
2023-02-17T11:30:16.259Z,69.94
2023-02-17T11:33:24.209Z,69.17
2023-02-17T11:36:30.578Z,68.67
2023-02-17T11:39:41.384Z,68.61
2023-02-17T11:42:42.935Z,68.41
2023-02-17T11:45:49.154Z,68.80
2023-02-17T11:49:28.696Z,69.48
2023-02-17T11:52:49.140Z,69.32
2023-02-17T11:56:02.442Z,69.74
2023-02-17T11:59:17.621Z,69.63
2023-02-17T12:02:38.161Z,69.81
2023-02-17T12:05:49.011Z,69.41
2023-02-17T12:09:06.443Z,69.67
2023-02-17T12:12:16.941Z,70.00
2023-02-17T12:15:37.589Z,70.10
2023-02-17T12:18:50.091Z,69.91
2023-02-17T12:22:20.694Z,69.69
2023-02-17T12:25:26.381Z,69.91
2023-02-17T12:29:02.545Z,70.35
2023-02-17T12:32:23.132Z,70.27
2023-02-17T12:36:10.795Z,70.17
2023-02-17T12:39:20.018Z,70.07
2023-02-17T12:42:27.394Z,70.46
2023-02-17T12:45:44.620Z,70.76
2023-02-17T12:48:54.277Z,70.60
2023-02-17T12:52:00.035Z,70.59
2023-02-17T12:55:21.917Z,70.84
2023-02-17T12:58:29.136Z,70.59
2023-02-17T13:01:32.353Z,70.49
2023-02-17T13:04:34.863Z,70.72
2023-02-17T13:07:53.962Z,70.58
2023-02-17T13:11:08.299Z,70.21
2023-02-17T13:14:12.304Z,70.77
2023-02-17T13:17:26.122Z,70.49
2023-02-17T13:20:52.247Z,70.30
2023-02-17T13:24:06.122Z,70.32
2023-02-17T13:27:24.644Z,70.23
2023-02-17T13:30:40.881Z,70.33
2023-02-17T13:33:56.765Z,70.17
2023-02-17T13:37:01.173Z,69.72
2023-02-17T13:40:23.779Z,69.92
2023-02-17T13:43:25.789Z,69.89
2023-02-17T13:46:27.728Z,69.65
2023-02-17T13:49:32.223Z,69.31
2023-02-17T13:52:33.865Z,69.44
2023-02-17T13:55:35.655Z,69.64
2023-02-17T13:58:39.783Z,69.81
2023-02-17T14:01:42.917Z,69.49
2023-02-17T14:04:44.585Z,68.80
2023-02-17T14:07:47.640Z,68.49
2023-02-17T14:10:49.535Z,68.44
2023-02-17T14:13:52.859Z,68.54
2023-02-17T14:17:12.922Z,68.80
2023-02-17T14:20:29.925Z,69.15
2023-02-17T14:23:46.998Z,69.16
2023-02-17T14:26:49.220Z,68.80
2023-02-17T14:29:50.844Z,69.10
2023-02-17T14:33:05.302Z,69.06
2023-02-17T14:36:07.597Z,69.14
2023-02-17T14:39:14.523Z,69.33
2023-02-17T14:42:16.217Z,69.32
2023-02-17T14:45:19.290Z,69.17
2023-02-17T14:48:21.090Z,69.27
2023-02-17T14:51:25.706Z,69.63
2023-02-17T14:54:30.354Z,69.74
2023-02-17T14:57:32.133Z,69.67
2023-02-17T15:00:33.783Z,69.65
2023-02-17T15:03:35.423Z,69.90
2023-02-17T15:06:40.899Z,69.70
2023-02-17T15:09:44.529Z,69.99
2023-02-17T15:12:46.837Z,70.39
2023-02-17T15:15:48.632Z,70.13
2023-02-17T15:18:50.172Z,70.10
2023-02-17T15:21:52.253Z,69.99
2023-02-17T15:24:53.856Z,69.97
2023-02-17T15:27:55.415Z,70.18
2023-02-17T15:30:57.014Z,70.35
2023-02-17T15:33:59.117Z,70.73
2023-02-17T15:37:01.484Z,71.04
2023-02-17T15:40:03.075Z,71.99
2023-02-17T15:43:04.984Z,73.02
2023-02-17T15:46:13.639Z,73.75
2023-02-17T15:49:15.366Z,74.91
2023-02-17T15:52:17.056Z,75.53
2023-02-17T15:55:19.823Z,75.70
2023-02-17T15:58:22.657Z,76.10
2023-02-17T16:01:30.184Z,76.49
2023-02-17T16:04:31.848Z,76.60
2023-02-17T16:07:34.203Z,76.55
2023-02-17T16:10:36.888Z,76.82
2023-02-17T16:13:40.118Z,77.00
2023-02-17T16:16:41.779Z,77.04
2023-02-17T16:19:43.859Z,76.90
2023-02-17T16:22:46.061Z,77.07
2023-02-17T16:25:48.705Z,77.13
2023-02-17T16:28:50.362Z,76.90
2023-02-17T16:31:52.015Z,76.79
2023-02-17T16:34:53.687Z,75.96
2023-02-17T16:38:08.743Z,76.09
2023-02-17T16:41:14.694Z,77.56
2023-02-17T16:44:17.880Z,78.50
2023-02-17T16:47:21.730Z,79.04
2023-02-17T16:50:30.539Z,78.89
2023-02-17T16:53:32.198Z,78.79
2023-02-17T16:56:37.284Z,78.79
2023-02-17T16:59:38.937Z,78.97
2023-02-17T17:02:40.617Z,78.79
2023-02-17T17:05:42.360Z,78.56
2023-02-17T17:08:44.170Z,78.54
2023-02-17T17:11:45.896Z,78.36
2023-02-17T17:14:47.783Z,78.49
2023-02-17T17:17:49.284Z,77.77
2023-02-17T17:20:50.851Z,77.52
2023-02-17T17:23:52.593Z,77.19
2023-02-17T17:26:54.443Z,76.45
2023-02-17T17:29:55.987Z,75.90
2023-02-17T17:32:57.618Z,75.99
2023-02-17T17:35:59.186Z,75.94
2023-02-17T17:39:01.166Z,75.66
2023-02-17T17:42:02.791Z,75.59
2023-02-17T17:45:04.482Z,75.33
2023-02-17T17:48:06.141Z,75.17
2023-02-17T17:51:08.986Z,75.21
2023-02-17T17:54:10.595Z,75.02
2023-02-17T17:57:12.616Z,74.82
2023-02-17T18:00:16.107Z,74.49
2023-02-17T18:03:17.758Z,75.11
2023-02-17T18:06:34.289Z,75.21
2023-02-17T18:09:37.386Z,74.85
2023-02-17T18:12:39.876Z,74.67
2023-02-17T18:15:41.953Z,74.44
2023-02-17T18:18:43.648Z,74.28
2023-02-17T18:21:45.758Z,74.03
2023-02-17T18:24:47.516Z,74.01
2023-02-17T18:27:49.054Z,73.89
2023-02-17T18:30:50.621Z,73.83
2023-02-17T18:33:53.277Z,73.53
2023-02-17T18:36:54.971Z,74.46
2023-02-17T18:39:56.640Z,74.42
2023-02-17T18:42:58.129Z,74.31
2023-02-17T18:45:59.813Z,74.33
2023-02-17T18:49:01.520Z,74.36
2023-02-17T18:52:03.100Z,74.47
2023-02-17T18:55:05.230Z,74.53
2023-02-17T18:58:06.903Z,75.50
2023-02-17T19:01:21.748Z,76.59
2023-02-17T19:04:23.730Z,77.02
2023-02-17T19:07:25.760Z,78.31
2023-02-17T19:10:27.511Z,79.53
2023-02-17T19:13:29.314Z,80.11
2023-02-17T19:16:31.913Z,80.06
2023-02-17T19:19:36.709Z,80.11
2023-02-17T19:22:38.705Z,79.81
2023-02-17T19:25:40.269Z,80.35
2023-02-17T19:28:41.950Z,79.76
2023-02-17T19:31:43.665Z,79.76
2023-02-17T19:34:45.413Z,79.99
2023-02-17T19:37:47.043Z,79.91
2023-02-17T19:40:48.685Z,80.02
2023-02-17T19:43:50.797Z,80.61
2023-02-17T19:46:52.444Z,80.33
2023-02-17T19:49:54.090Z,80.31
2023-02-17T19:52:55.784Z,80.18
2023-02-17T19:56:12.751Z,79.78
2023-02-17T19:59:14.689Z,80.08
2023-02-17T20:02:16.481Z,80.33
2023-02-17T20:05:18.147Z,80.83
2023-02-17T20:08:19.791Z,81.42
2023-02-17T20:11:21.483Z,81.42
2023-02-17T20:14:23.261Z,81.50
2023-02-17T20:17:24.862Z,82.84
2023-02-17T20:20:26.450Z,82.90
2023-02-17T20:23:28.007Z,82.94
2023-02-17T20:26:32.644Z,83.52
2023-02-17T20:29:34.370Z,83.71
2023-02-17T20:32:35.966Z,83.59
2023-02-17T20:35:37.841Z,83.79
2023-02-17T20:38:40.474Z,83.92
2023-02-17T20:41:42.040Z,84.08
2023-02-17T20:44:43.569Z,84.15
2023-02-17T20:47:45.321Z,85.17
2023-02-17T20:50:46.928Z,84.62
2023-02-17T20:53:48.566Z,84.87
2023-02-17T20:56:50.361Z,85.24
2023-02-17T20:59:52.158Z,84.74
2023-02-17T21:02:54.424Z,84.99
2023-02-17T21:05:56.098Z,84.71
2023-02-17T21:08:58.592Z,84.20
2023-02-17T21:12:00.196Z,84.34
2023-02-17T21:15:01.770Z,84.68
2023-02-17T21:18:03.227Z,84.30
2023-02-17T21:21:05.068Z,83.97
2023-02-17T21:24:06.821Z,84.54
2023-02-17T21:27:08.426Z,84.39
2023-02-17T21:30:12.008Z,83.54
2023-02-17T21:33:13.774Z,83.90
2023-02-17T21:36:17.568Z,83.60
2023-02-17T21:39:19.118Z,83.45
2023-02-17T21:42:20.620Z,83.80
2023-02-17T21:45:22.915Z,83.25
2023-02-17T21:48:24.546Z,83.96
2023-02-17T21:51:26.001Z,83.16
2023-02-17T21:54:27.615Z,83.48
2023-02-17T21:57:29.207Z,83.21
2023-02-17T22:00:30.820Z,82.44
2023-02-17T22:03:32.771Z,82.29
2023-02-17T22:06:37.694Z,82.31
2023-02-17T22:09:39.258Z,82.06
2023-02-17T22:12:40.776Z,82.01
2023-02-17T22:15:42.327Z,82.08
2023-02-17T22:18:43.831Z,81.95
2023-02-17T22:21:46.175Z,81.92
2023-02-17T22:24:47.790Z,81.67
2023-02-17T22:27:49.373Z,81.64
2023-02-17T22:30:54.110Z,81.83
2023-02-17T22:33:57.521Z,82.07
2023-02-17T22:36:59.244Z,81.96
2023-02-17T22:40:00.932Z,81.84
2023-02-17T22:43:02.637Z,81.73
2023-02-17T22:46:04.827Z,82.17
2023-02-17T22:49:06.484Z,81.92
2023-02-17T22:52:08.510Z,81.55
2023-02-17T22:55:10.047Z,82.83
2023-02-17T22:58:11.652Z,83.36
2023-02-17T23:01:15.761Z,82.58
2023-02-17T23:04:17.710Z,82.59
2023-02-17T23:07:19.336Z,82.69
2023-02-17T23:10:21.034Z,83.41
2023-02-17T23:13:22.586Z,83.66
2023-02-17T23:16:24.310Z,83.53
2023-02-17T23:19:26.314Z,82.51
2023-02-17T23:22:28.216Z,81.61
2023-02-17T23:25:29.980Z,80.10
2023-02-17T23:28:31.940Z,79.80
2023-02-17T23:31:33.869Z,78.68
2023-02-17T23:34:35.701Z,78.21
2023-02-17T23:37:37.434Z,77.83
2023-02-17T23:40:39.749Z,77.25
2023-02-17T23:43:41.356Z,76.92
2023-02-17T23:46:44.567Z,76.57
2023-02-17T23:49:46.149Z,76.69
2023-02-17T23:52:47.845Z,76.79
2023-02-17T23:55:49.420Z,76.26
2023-02-17T23:58:51.582Z,75.56
